createdAt,value
2018-10-12T00:00:08.890Z,6.37
2018-10-12T00:02:36.302Z,6.07
2018-10-12T00:05:04.080Z,5.23
2018-10-12T00:07:31.562Z,6.00
2018-10-12T00:09:59.031Z,4.97
2018-10-12T00:12:26.785Z,3.97
2018-10-12T00:14:54.225Z,6.17
2018-10-12T00:17:21.685Z,5.40
2018-10-12T00:19:49.401Z,3.57
2018-10-12T00:22:16.875Z,4.50
2018-10-12T00:24:44.348Z,4.33
2018-10-12T00:27:11.971Z,3.80
2018-10-12T00:29:39.460Z,3.30
2018-10-12T00:32:07.145Z,2.87
2018-10-12T00:34:34.731Z,3.33
2018-10-12T00:37:02.174Z,3.83
2018-10-12T00:39:29.647Z,2.37
2018-10-12T00:41:57.491Z,3.43
2018-10-12T00:44:24.900Z,4.83
2018-10-12T00:46:52.390Z,2.63
2018-10-12T00:49:19.920Z,2.33
2018-10-12T00:51:47.442Z,2.73
2018-10-12T00:54:14.922Z,3.90
2018-10-12T00:56:42.624Z,3.37
2018-10-12T00:59:10.105Z,5.30
2018-10-12T01:01:37.596Z,3.60
2018-10-12T01:04:05.370Z,3.73
2018-10-12T01:06:32.860Z,2.47
2018-10-12T01:09:00.402Z,5.13
2018-10-12T01:11:28.189Z,5.10
2018-10-12T01:13:55.824Z,6.30
2018-10-12T01:16:23.347Z,4.93
2018-10-12T01:18:51.010Z,8.03
2018-10-12T01:21:18.625Z,6.33
2018-10-12T01:23:46.152Z,7.90
2018-10-12T01:26:13.769Z,8.70
2018-10-12T01:28:41.297Z,6.20
2018-10-12T01:31:08.831Z,7.73
2018-10-12T01:33:36.479Z,6.83
2018-10-12T01:36:03.996Z,9.20
2018-10-12T01:38:31.442Z,7.40
2018-10-12T01:40:59.132Z,7.87
2018-10-12T01:43:26.869Z,10.07
2018-10-12T01:45:54.294Z,8.43
2018-10-12T01:48:21.824Z,8.13
2018-10-12T01:50:49.336Z,7.90
2018-10-12T01:53:16.815Z,9.87
2018-10-12T01:55:44.466Z,7.63
2018-10-12T01:58:11.912Z,9.63
2018-10-12T02:00:39.408Z,8.80
2018-10-12T02:03:07.057Z,10.57
2018-10-12T02:05:34.544Z,9.47
2018-10-12T02:08:01.954Z,7.37
2018-10-12T02:10:29.598Z,9.10
2018-10-12T02:12:57.108Z,9.93
2018-10-12T02:15:24.577Z,10.17
2018-10-12T02:17:52.319Z,8.33
2018-10-12T02:20:19.770Z,10.63
2018-10-12T02:22:47.178Z,12.87
2018-10-12T02:25:14.806Z,14.17
2018-10-12T02:27:42.251Z,12.83
2018-10-12T02:30:10.059Z,16.23
2018-10-12T02:32:37.752Z,14.37
2018-10-12T02:35:05.596Z,15.37
2018-10-12T02:37:33.172Z,13.77
2018-10-12T02:40:00.797Z,21.37
2018-10-12T02:42:28.273Z,16.43
2018-10-12T02:44:55.965Z,13.50
2018-10-12T02:47:23.652Z,14.47
2018-10-12T02:49:51.116Z,18.00
2018-10-12T02:52:18.638Z,18.23
2018-10-12T02:54:46.259Z,17.40
2018-10-12T02:57:13.788Z,16.33
2018-10-12T02:59:41.327Z,15.43
2018-10-12T03:02:09.064Z,14.60
2018-10-12T03:04:36.515Z,14.77
2018-10-12T03:07:04.023Z,19.57
2018-10-12T03:09:31.598Z,20.47
2018-10-12T03:11:59.075Z,16.73
2018-10-12T03:14:26.621Z,21.20
2018-10-12T03:16:54.204Z,19.73
2018-10-12T03:19:21.727Z,17.43
2018-10-12T03:21:49.254Z,20.13
2018-10-12T03:24:16.966Z,21.10
2018-10-12T03:26:44.390Z,18.53
2018-10-12T03:29:11.991Z,19.90
2018-10-12T03:31:39.678Z,19.47
2018-10-12T03:34:07.223Z,17.60
2018-10-12T03:36:35.001Z,18.07
2018-10-12T03:39:03.302Z,19.53
2018-10-12T03:41:30.794Z,16.87
2018-10-12T03:43:58.273Z,18.30
2018-10-12T03:46:26.068Z,14.93
2018-10-12T03:48:53.570Z,11.07
2018-10-12T03:51:21.086Z,15.03
2018-10-12T03:53:48.600Z,15.07
2018-10-12T03:56:16.108Z,13.33
2018-10-12T03:58:43.711Z,9.93
2018-10-12T04:01:11.372Z,10.53
2018-10-12T04:03:38.804Z,8.80
2018-10-12T04:06:06.274Z,10.53
2018-10-12T04:08:34.061Z,10.83
2018-10-12T04:11:01.531Z,9.90
2018-10-12T04:13:28.982Z,9.37
2018-10-12T04:15:56.559Z,8.90
2018-10-12T04:18:24.356Z,9.13
2018-10-12T04:20:51.829Z,9.40
2018-10-12T04:23:19.375Z,8.83
2018-10-12T04:25:46.768Z,8.53
2018-10-12T04:28:14.373Z,9.03
2018-10-12T04:30:42.077Z,12.17
2018-10-12T04:33:09.492Z,9.43
2018-10-12T04:35:36.976Z,10.70
2018-10-12T04:38:04.798Z,12.77
2018-10-12T04:41:10.160Z,11.20
2018-10-12T04:43:37.963Z,15.93
2018-10-12T04:46:06.810Z,11.23
2018-10-12T04:48:35.299Z,12.73
2018-10-12T04:51:04.045Z,12.00
2018-10-12T04:53:31.735Z,12.63
2018-10-12T04:55:59.212Z,14.87
2018-10-12T04:58:26.806Z,13.47
2018-10-12T05:00:54.426Z,14.83
2018-10-12T05:03:21.987Z,15.03
2018-10-12T05:05:49.619Z,17.53
2018-10-12T05:08:17.061Z,16.90
2018-10-12T05:10:44.552Z,17.27
2018-10-12T05:13:12.168Z,19.37
2018-10-12T05:15:39.768Z,16.87
2018-10-12T05:18:07.385Z,20.47
2018-10-12T05:20:34.981Z,20.50
2018-10-12T05:23:02.465Z,19.90
2018-10-12T05:25:29.994Z,21.30
2018-10-12T05:27:57.684Z,24.87
2018-10-12T05:30:25.135Z,20.40
2018-10-12T05:32:52.618Z,27.87
2018-10-12T05:35:20.226Z,31.27
2018-10-12T05:37:47.733Z,33.20
2018-10-12T05:40:15.219Z,39.00
2018-10-12T05:42:42.960Z,33.13
2018-10-12T05:45:10.387Z,36.33
2018-10-12T05:47:37.867Z,34.73
2018-10-12T05:50:07.518Z,36.23
2018-10-12T05:52:35.641Z,36.20
2018-10-12T05:55:03.255Z,35.33
2018-10-12T05:57:31.938Z,38.07
2018-10-12T05:59:59.451Z,34.40
2018-10-12T06:02:27.043Z,32.10
2018-10-12T06:04:54.768Z,35.47
2018-10-12T06:07:22.348Z,37.57
2018-10-12T06:09:50.072Z,37.77
2018-10-12T06:12:17.971Z,35.00
2018-10-12T06:14:45.472Z,35.73
2018-10-12T06:17:12.969Z,36.17
2018-10-12T06:19:40.507Z,33.37
2018-10-12T06:22:08.158Z,35.17
2018-10-12T06:24:35.554Z,39.07
2018-10-12T06:27:03.237Z,36.70
2018-10-12T06:29:30.791Z,34.00
2018-10-12T06:31:58.324Z,34.03
2018-10-12T06:34:25.886Z,40.20
2018-10-12T06:36:53.356Z,42.70
2018-10-12T06:39:20.825Z,37.00
2018-10-12T06:41:48.551Z,33.93
2018-10-12T06:44:16.039Z,42.90
2018-10-12T06:46:43.517Z,40.40
2018-10-12T06:49:11.234Z,40.30
2018-10-12T06:51:38.957Z,42.43
2018-10-12T06:54:06.516Z,36.10
2018-10-12T06:56:34.143Z,41.60
2018-10-12T06:59:01.755Z,40.40
2018-10-12T07:01:29.571Z,43.30
2018-10-12T07:03:57.501Z,42.30
2018-10-12T07:06:25.019Z,41.00
2018-10-12T07:08:52.557Z,42.57
2018-10-12T07:11:20.116Z,40.57
2018-10-12T07:13:48.523Z,42.97
2018-10-12T07:16:16.218Z,43.37
2018-10-12T07:18:43.979Z,39.77
2018-10-12T07:21:11.403Z,45.00
2018-10-12T07:23:38.876Z,48.67
2018-10-12T07:26:06.781Z,42.80
2018-10-12T07:28:34.280Z,38.00
2018-10-12T07:31:01.689Z,44.87
2018-10-12T07:33:29.307Z,45.60
2018-10-12T07:35:56.786Z,44.00
2018-10-12T07:38:24.420Z,49.70
2018-10-12T07:40:52.095Z,31.23
2018-10-12T07:43:19.581Z,37.13
2018-10-12T07:45:47.120Z,52.83
2018-10-12T07:48:14.886Z,39.43
2018-10-12T07:50:42.423Z,39.57
2018-10-12T07:55:52.353Z,39.53
2018-10-12T07:58:19.876Z,37.23
2018-10-12T08:00:47.421Z,35.83
2018-10-12T08:03:15.156Z,38.13
2018-10-12T08:05:42.659Z,34.43
2018-10-12T08:08:10.099Z,35.93
2018-10-12T08:10:37.824Z,34.00
2018-10-12T08:13:05.398Z,42.77
2018-10-12T08:15:32.993Z,36.93
2018-10-12T08:18:00.748Z,42.80
2018-10-12T08:20:28.388Z,37.47
2018-10-12T08:22:55.782Z,35.93
2018-10-12T08:25:23.537Z,30.97
2018-10-12T08:27:51.140Z,31.13
2018-10-12T08:30:18.621Z,33.93
2018-10-12T08:32:46.406Z,35.23
2018-10-12T08:35:13.983Z,38.20
2018-10-12T08:37:41.370Z,33.63
2018-10-12T08:40:09.094Z,29.77
2018-10-12T08:42:36.563Z,35.20
2018-10-12T08:45:04.195Z,35.07
2018-10-12T08:47:31.841Z,34.20
2018-10-12T08:49:59.284Z,33.77
2018-10-12T08:52:26.756Z,29.33
2018-10-12T08:54:54.530Z,28.03
2018-10-12T08:57:22.056Z,29.03
2018-10-12T08:59:49.536Z,26.70
2018-10-12T09:02:17.248Z,29.67
2018-10-12T09:04:44.881Z,29.63
2018-10-12T09:07:12.386Z,26.80
2018-10-12T09:09:40.116Z,27.07
2018-10-12T09:12:07.557Z,25.87
2018-10-12T09:14:35.052Z,26.67
2018-10-12T09:17:02.738Z,28.10
2018-10-12T09:19:30.188Z,28.47
2018-10-12T09:21:57.756Z,26.17
2018-10-12T09:24:25.364Z,28.03
2018-10-12T09:26:52.844Z,28.70
2018-10-12T09:29:20.424Z,29.13
2018-10-12T09:31:48.183Z,27.80
2018-10-12T09:34:15.659Z,24.40
2018-10-12T09:36:43.220Z,26.77
2018-10-12T09:39:10.808Z,23.37
2018-10-12T09:41:38.260Z,25.93
2018-10-12T09:44:05.693Z,23.47
2018-10-12T09:46:33.408Z,27.10
2018-10-12T09:49:00.892Z,31.57
2018-10-12T09:51:28.406Z,27.10
2018-10-12T09:53:55.923Z,31.83
2018-10-12T09:56:23.362Z,29.57
2018-10-12T09:58:50.855Z,28.33
2018-10-12T10:01:23.949Z,28.87
2018-10-12T10:03:56.831Z,25.73
2018-10-12T10:06:24.746Z,23.07
2018-10-12T10:08:52.202Z,21.67
2018-10-12T10:11:19.677Z,21.10
2018-10-12T10:13:47.249Z,25.80
2018-10-12T10:16:14.763Z,22.53
2018-10-12T10:18:42.250Z,24.90
2018-10-12T10:21:09.909Z,23.13
2018-10-12T10:23:37.421Z,23.37
2018-10-12T10:26:04.961Z,24.83
2018-10-12T10:28:32.641Z,22.20
2018-10-12T10:31:00.108Z,23.60
2018-10-12T10:33:27.576Z,21.77
2018-10-12T10:35:55.155Z,22.60
2018-10-12T10:38:22.650Z,23.27
2018-10-12T10:40:50.121Z,21.00
2018-10-12T10:43:17.870Z,23.57
2018-10-12T10:45:45.357Z,20.07
2018-10-12T10:48:12.835Z,24.23
2018-10-12T10:50:40.541Z,24.47
2018-10-12T10:53:08.080Z,25.40
2018-10-12T10:55:35.486Z,22.63
2018-10-12T10:58:03.054Z,28.00
2018-10-12T11:00:30.549Z,23.97
2018-10-12T11:02:57.999Z,21.37
2018-10-12T11:05:25.846Z,21.60
2018-10-12T11:07:53.452Z,25.67
2018-10-12T11:10:21.020Z,27.23
2018-10-12T11:12:48.789Z,23.93
2018-10-12T11:15:16.299Z,22.13
2018-10-12T11:17:43.796Z,25.57
2018-10-12T11:20:11.521Z,26.50
2018-10-12T11:22:39.003Z,23.60
2018-10-12T11:25:06.688Z,21.70
2018-10-12T11:27:34.268Z,21.67
2018-10-12T11:30:01.697Z,20.53
2018-10-12T11:32:29.196Z,28.90
2018-10-12T11:34:56.879Z,23.73
2018-10-12T11:37:24.473Z,19.70
2018-10-12T11:39:51.917Z,25.47
2018-10-12T11:42:19.572Z,28.40
2018-10-12T11:44:47.089Z,25.73
2018-10-12T11:47:14.510Z,26.77
2018-10-12T11:49:42.219Z,27.57
2018-10-12T11:52:09.715Z,25.17
2018-10-12T11:54:37.142Z,29.27
2018-10-12T11:57:04.864Z,27.80
2018-10-12T11:59:32.292Z,31.77
2018-10-12T12:01:59.847Z,30.97
2018-10-12T12:04:27.598Z,33.17
2018-10-12T12:06:55.107Z,28.40
2018-10-12T12:09:22.878Z,31.37
2018-10-12T12:11:50.462Z,29.10
2018-10-12T12:14:17.849Z,36.13
2018-10-12T12:16:45.337Z,33.33
2018-10-12T12:19:13.073Z,35.53
2018-10-12T12:21:40.604Z,30.87
2018-10-12T12:24:08.104Z,33.37
2018-10-12T12:26:35.792Z,35.00
2018-10-12T12:29:03.254Z,31.47
2018-10-12T12:31:30.687Z,28.53
2018-10-12T12:33:58.350Z,27.03
2018-10-12T12:36:25.884Z,34.40
2018-10-12T12:38:53.336Z,33.43
2018-10-12T12:41:21.037Z,31.97
2018-10-12T12:43:48.471Z,35.63
2018-10-12T12:46:16.194Z,29.37
2018-10-12T12:48:44.137Z,26.83
2018-10-12T12:51:12.144Z,31.40
2018-10-12T12:53:39.694Z,28.30
2018-10-12T12:56:07.829Z,31.67
2018-10-12T12:58:35.317Z,33.77
2018-10-12T13:01:02.817Z,31.67
2018-10-12T13:03:30.491Z,31.93
2018-10-12T13:05:57.945Z,31.43
2018-10-12T13:08:25.515Z,38.17
2018-10-12T13:10:53.250Z,32.10
2018-10-12T13:13:21.115Z,33.50
2018-10-12T13:15:48.640Z,39.83
2018-10-12T13:18:16.271Z,32.63
2018-10-12T13:20:43.790Z,33.20
2018-10-12T13:23:11.279Z,36.07
2018-10-12T13:25:39.021Z,32.63
2018-10-12T13:28:06.541Z,28.37
2018-10-12T13:30:33.998Z,33.53
2018-10-12T13:33:01.644Z,34.33
2018-10-12T13:35:29.141Z,37.23
2018-10-12T13:37:56.627Z,30.37
2018-10-12T13:40:24.599Z,32.33
2018-10-12T13:42:52.082Z,37.07
2018-10-12T13:45:19.512Z,35.07
2018-10-12T13:47:47.177Z,29.90
2018-10-12T13:50:14.656Z,33.90
2018-10-12T13:52:42.121Z,31.27
2018-10-12T13:55:09.814Z,35.20
2018-10-12T13:57:37.242Z,35.03
2018-10-12T14:00:04.716Z,32.77
2018-10-12T14:02:32.457Z,34.83
2018-10-12T14:04:59.870Z,30.83
2018-10-12T14:07:27.343Z,30.27
2018-10-12T14:09:54.935Z,34.97
2018-10-12T14:12:22.654Z,28.17
2018-10-12T14:14:50.099Z,33.20
2018-10-12T14:17:17.711Z,32.17
2018-10-12T14:19:45.353Z,28.17
2018-10-12T14:22:12.840Z,22.80
2018-10-12T14:24:40.485Z,28.00
2018-10-12T14:27:08.843Z,25.70
2018-10-12T14:29:36.338Z,19.97
2018-10-12T14:32:04.011Z,20.10
2018-10-12T14:34:31.537Z,18.70
2018-10-12T14:36:58.965Z,18.17
2018-10-12T14:39:26.459Z,18.90
2018-10-12T14:41:53.979Z,21.23
2018-10-12T14:44:21.620Z,17.10
2018-10-12T14:46:49.201Z,17.93
2018-10-12T14:49:16.745Z,16.43
2018-10-12T14:51:44.498Z,18.37
2018-10-12T14:54:12.252Z,15.93
2018-10-12T14:56:39.753Z,13.57
2018-10-12T14:59:07.270Z,15.77
2018-10-12T15:01:35.016Z,12.43
2018-10-12T15:04:02.550Z,17.97
2018-10-12T15:06:30.091Z,16.20
2018-10-12T15:08:57.675Z,12.80
2018-10-12T15:11:25.184Z,14.13
2018-10-12T15:13:52.924Z,15.03
2018-10-12T15:16:20.556Z,13.93
2018-10-12T15:18:48.019Z,16.40
2018-10-12T15:21:15.601Z,14.47
2018-10-12T15:23:43.278Z,12.90
2018-10-12T15:26:10.762Z,14.40
2018-10-12T15:28:38.268Z,13.97
2018-10-12T15:31:05.938Z,13.17
2018-10-12T15:33:33.457Z,13.60
2018-10-12T15:36:01.014Z,14.83
2018-10-12T15:38:28.618Z,14.23
2018-10-12T15:40:56.208Z,13.60
2018-10-12T15:43:23.677Z,12.23
2018-10-12T15:45:51.279Z,14.60
2018-10-12T15:48:18.725Z,12.50
2018-10-12T15:50:46.202Z,17.70
2018-10-12T15:53:13.900Z,15.83
2018-10-12T15:55:41.399Z,14.43
2018-10-12T15:58:08.959Z,13.70
2018-10-12T16:00:36.594Z,16.67
2018-10-12T16:03:04.108Z,12.53
2018-10-12T16:05:31.620Z,15.63
2018-10-12T16:07:59.951Z,14.00
2018-10-12T16:10:27.584Z,13.97
2018-10-12T16:12:55.063Z,13.50
2018-10-12T16:15:22.806Z,13.73
2018-10-12T16:17:50.360Z,16.93
2018-10-12T16:20:17.790Z,18.50
2018-10-12T16:22:45.534Z,15.90
2018-10-12T16:25:24.288Z,16.03
2018-10-12T16:27:51.920Z,15.37
2018-10-12T16:30:19.369Z,19.20
2018-10-12T16:32:46.823Z,15.27
2018-10-12T16:35:14.553Z,17.00
2018-10-12T16:37:41.951Z,13.83
2018-10-12T16:40:09.429Z,16.10
2018-10-12T16:42:37.369Z,14.33
2018-10-12T16:45:04.917Z,16.77
2018-10-12T16:47:32.406Z,15.13
2018-10-12T16:50:00.075Z,18.87
2018-10-12T16:52:27.807Z,17.17
2018-10-12T16:54:55.286Z,14.37
2018-10-12T16:57:25.771Z,16.57
2018-10-12T16:59:53.433Z,16.67
2018-10-12T17:02:20.940Z,17.70
2018-10-12T17:04:48.659Z,14.23
2018-10-12T17:07:16.154Z,17.03
2018-10-12T17:09:43.598Z,15.07
2018-10-12T17:12:11.188Z,13.43
2018-10-12T17:14:38.681Z,15.50
2018-10-12T17:17:06.551Z,18.80
2018-10-12T17:19:34.168Z,18.30
2018-10-12T17:22:01.599Z,18.97
2018-10-12T17:24:29.082Z,18.90
2018-10-12T17:26:56.767Z,20.67
2018-10-12T17:29:24.209Z,23.00
2018-10-12T17:31:51.655Z,18.17
2018-10-12T17:34:19.400Z,19.37
2018-10-12T17:36:46.857Z,17.87
2018-10-12T17:39:14.257Z,20.30
2018-10-12T17:41:41.897Z,23.20
2018-10-12T17:44:09.366Z,17.93
2018-10-12T17:46:36.838Z,22.20
2018-10-12T17:49:04.402Z,22.07
2018-10-12T17:51:31.854Z,20.80
2018-10-12T17:53:59.492Z,18.73
2018-10-12T17:56:27.177Z,20.93
2018-10-12T17:58:54.627Z,17.23
2018-10-12T18:01:22.094Z,18.13
2018-10-12T18:03:49.620Z,17.80
2018-10-12T18:06:17.088Z,19.30
2018-10-12T18:08:44.637Z,20.40
2018-10-12T18:11:12.238Z,23.80
2018-10-12T18:13:39.725Z,17.50
2018-10-12T18:16:07.311Z,17.53
2018-10-12T18:18:34.892Z,21.27
2018-10-12T18:21:02.393Z,17.50
2018-10-12T18:23:29.868Z,26.87
2018-10-12T18:25:57.628Z,20.83
2018-10-12T18:28:24.967Z,18.87
2018-10-12T18:30:52.389Z,18.77
2018-10-12T18:33:19.997Z,18.47
2018-10-12T18:35:47.422Z,22.20
2018-10-12T18:38:14.873Z,20.63
2018-10-12T18:40:42.563Z,17.20
2018-10-12T18:43:10.063Z,20.67
2018-10-12T18:45:37.494Z,21.80
2018-10-12T18:48:05.357Z,17.57
2018-10-12T18:50:32.864Z,21.30
2018-10-12T18:53:00.463Z,21.37
2018-10-12T18:55:28.339Z,22.67
2018-10-12T18:57:55.834Z,19.37
2018-10-12T19:00:23.267Z,20.30
2018-10-12T19:02:50.892Z,22.67
2018-10-12T19:05:18.471Z,23.07
2018-10-12T19:07:45.911Z,21.73
2018-10-12T19:10:13.508Z,26.63
2018-10-12T19:12:41.002Z,24.27
2018-10-12T19:15:08.664Z,22.70
2018-10-12T19:17:36.254Z,23.57
2018-10-12T19:20:03.890Z,25.37
2018-10-12T19:22:31.393Z,23.43
2018-10-12T19:24:58.964Z,20.93
2018-10-12T19:27:26.610Z,24.00
2018-10-12T19:29:54.074Z,21.73
2018-10-12T19:32:21.717Z,21.40
2018-10-12T19:34:49.257Z,22.23
2018-10-12T19:37:16.705Z,22.47
2018-10-12T19:39:44.349Z,21.67
2018-10-12T19:42:12.110Z,22.60
2018-10-12T19:44:39.555Z,23.07
2018-10-12T19:47:07.337Z,21.47
2018-10-12T19:49:34.799Z,25.43
2018-10-12T19:52:02.283Z,23.23
2018-10-12T19:54:29.885Z,22.83
2018-10-12T19:56:57.434Z,20.63
2018-10-12T19:59:24.930Z,21.17
2018-10-12T20:01:52.500Z,21.40
2018-10-12T20:04:19.956Z,27.33
2018-10-12T20:06:47.447Z,21.97
2018-10-12T20:09:15.076Z,21.90
2018-10-12T20:11:42.544Z,23.83
2018-10-12T20:14:10.028Z,18.67
2018-10-12T20:16:37.842Z,21.10
2018-10-12T20:19:05.641Z,21.87
2018-10-12T20:21:33.094Z,22.43
2018-10-12T20:24:00.657Z,21.83
2018-10-12T20:26:28.044Z,20.40
2018-10-12T20:28:55.552Z,20.67
2018-10-12T20:31:23.264Z,19.77
2018-10-12T20:33:50.824Z,23.43
2018-10-12T20:36:18.288Z,18.93
2018-10-12T20:38:46.021Z,22.67
2018-10-12T20:41:13.531Z,24.63
2018-10-12T20:43:41.007Z,21.03
2018-10-12T20:46:08.658Z,24.13
2018-10-12T20:48:36.149Z,18.93
2018-10-12T20:51:03.683Z,22.33
2018-10-12T20:53:31.403Z,23.70
2018-10-12T20:55:58.862Z,22.83
2018-10-12T20:58:26.473Z,24.70
2018-10-12T21:00:54.132Z,22.47
2018-10-12T21:03:21.609Z,24.37
2018-10-12T21:05:49.094Z,26.27
2018-10-12T21:08:16.710Z,24.40
2018-10-12T21:10:44.412Z,24.97
2018-10-12T21:13:11.934Z,26.53
2018-10-12T21:15:39.564Z,28.00
2018-10-12T21:18:07.052Z,26.10
2018-10-12T21:20:34.566Z,27.03
2018-10-12T21:23:02.191Z,25.83
2018-10-12T21:25:29.633Z,26.77
2018-10-12T21:27:57.157Z,28.17
2018-10-12T21:30:24.809Z,24.03
2018-10-12T21:32:52.285Z,28.40
2018-10-12T21:35:19.701Z,25.90
2018-10-12T21:37:47.255Z,25.97
2018-10-12T21:40:14.740Z,27.43
2018-10-12T21:42:42.179Z,30.27
2018-10-12T21:45:09.760Z,26.60
2018-10-12T21:47:37.221Z,26.77
2018-10-12T21:50:04.745Z,31.13
2018-10-12T21:52:32.277Z,33.27
2018-10-12T21:55:06.436Z,34.47
2018-10-12T21:57:34.055Z,32.43
2018-10-12T22:00:01.796Z,31.17
2018-10-12T22:02:29.180Z,25.20
2018-10-12T22:04:56.922Z,29.27
2018-10-12T22:07:24.465Z,23.63
2018-10-12T22:09:51.953Z,22.40
2018-10-12T22:12:19.492Z,25.23
2018-10-12T22:14:47.022Z,27.20
2018-10-12T22:17:14.523Z,25.63
2018-10-12T22:19:42.064Z,22.50
2018-10-12T22:22:09.516Z,24.13
2018-10-12T22:24:36.981Z,19.00
2018-10-12T22:27:04.795Z,23.03
2018-10-12T22:29:32.335Z,20.20
2018-10-12T22:31:59.760Z,21.37
2018-10-12T22:34:27.456Z,26.33
2018-10-12T22:36:54.936Z,20.57
2018-10-12T22:39:22.402Z,23.13
2018-10-12T22:41:50.129Z,25.57
2018-10-12T22:44:17.592Z,25.53
2018-10-12T22:49:19.318Z,20.67
2018-10-12T22:51:46.829Z,22.37
2018-10-12T22:54:14.601Z,24.40
2018-10-12T22:56:42.121Z,21.37
2018-10-12T22:59:09.558Z,19.63
2018-10-12T23:01:37.237Z,19.73
2018-10-12T23:04:04.821Z,25.00
2018-10-12T23:06:32.318Z,20.80
2018-10-12T23:08:59.767Z,17.67
2018-10-12T23:11:27.543Z,27.10
2018-10-12T23:13:55.029Z,26.20
2018-10-12T23:16:22.493Z,24.87
2018-10-12T23:18:50.116Z,25.87
2018-10-12T23:21:17.716Z,23.00
2018-10-12T23:23:45.150Z,22.30
2018-10-12T23:26:12.715Z,21.50
2018-10-12T23:28:40.155Z,31.23
2018-10-12T23:31:07.801Z,26.43
2018-10-12T23:33:46.856Z,29.77
2018-10-12T23:36:14.313Z,21.67
2018-10-12T23:38:41.821Z,25.53
2018-10-12T23:41:09.446Z,27.07
2018-10-12T23:43:36.970Z,23.33
2018-10-12T23:46:04.443Z,22.47
2018-10-12T23:48:32.118Z,23.20
2018-10-12T23:50:59.651Z,24.77
2018-10-12T23:53:27.054Z,25.77
2018-10-12T23:55:54.641Z,29.87
2018-10-12T23:58:22.077Z,29.90
